KDLF

Laughlin AFB Airport

Del Rio, Texas, USA
METAR KDLF 151256Z 34005KT 10SM SCT080 BKN120 07/04 A3032 RMK AO2A SLP268 T00710042
Observed Flight Rules
Dec-15 @ 12:56 UTC (an hour ago) Visual Flight Rules
Wind Visibility Clouds
340° at 5 knots 10 miles
  • Scattered at 8,000' AGL
  • Broken at 12,000' AGL
Temperatures Readings
Current 7°C / 45°F
Dewpoint 4°C / 39°F
Humidity 81%
Altimeter 30.32" Hg
Pressure 1026.8 hPa
Elevation 330
METAR KDLF 151256Z 34005KT 10SM SCT080 BKN120 07/04 A3032 RMK AO2A SLP268 T00710042
Observed Flight Rules
Dec-15 @ 12:56 UTC
(an hour ago)
VFR
Wind Visibility
340° at 5 knots 10 miles
Clouds
  • Scattered at 8,000' AGL
  • Broken at 12,000' AGL
Temperature Dewpoint
7°C / 45°F 4°C / 39°F
Humidity Altimeter Pressure
81% 30.32" Hg 1026.8 hPa